createdAt,value
2018-10-01T00:00:44.407Z,"    0"
2018-10-01T00:05:41.902Z,"    0"
2018-10-01T00:10:37.572Z,"    0"
2018-10-01T00:15:33.625Z,"    0"
2018-10-01T00:20:30.512Z,"    0"
2018-10-01T00:25:25.949Z,"    0"
2018-10-01T00:30:21.755Z,"    0"
2018-10-01T00:35:18.744Z,"    0"
2018-10-01T00:40:14.227Z,"    0"
2018-10-01T00:45:09.804Z,"    0"
2018-10-01T00:50:05.763Z,"    0"
2018-10-01T00:55:02.278Z,"    0"
2018-10-01T00:59:59.699Z,"    0"
2018-10-01T01:04:56.616Z,"    0"
2018-10-01T01:09:53.011Z,"    0"
2018-10-01T01:14:49.413Z,"    0"
2018-10-01T01:19:44.967Z,"    0"
2018-10-01T01:24:41.164Z,"    0"
2018-10-01T01:29:36.968Z,"    0"
2018-10-01T01:34:33.774Z,"    0"
2018-10-01T01:39:30.330Z,"    0"
2018-10-01T01:44:25.893Z,"    0"
2018-10-01T01:49:21.358Z,"    0"
2018-10-01T01:54:17.456Z,"    0"
2018-10-01T01:59:14.910Z,"    0"
2018-10-01T02:04:10.350Z,"    0"
2018-10-01T02:09:06.230Z,"    0"
2018-10-01T02:14:01.943Z,"    0"
2018-10-01T02:18:58.438Z,"    0"
2018-10-01T02:23:55.233Z,"    0"
2018-10-01T02:28:51.590Z,"    0"
2018-10-01T02:33:48.705Z,"    0"
2018-10-01T02:38:45.057Z,"    0"
2018-10-01T02:43:40.457Z,"    0"
2018-10-01T02:48:37.306Z,"    0"
2018-10-01T02:53:32.768Z,"    0"
2018-10-01T02:58:29.202Z,"    0"
2018-10-01T03:03:24.935Z,"    0"
2018-10-01T03:08:20.519Z,"    0"
2018-10-01T03:13:17.313Z,"    0"
2018-10-01T03:18:13.082Z,"    0"
2018-10-01T03:23:09.893Z,"    0"
2018-10-01T03:28:05.255Z,"    0"
2018-10-01T03:33:01.009Z,"    0"
2018-10-01T03:37:56.745Z,"    0"
2018-10-01T03:42:52.190Z,"    0"
2018-10-01T03:47:49.301Z,"    0"
2018-10-01T03:52:44.731Z,"    0"
2018-10-01T03:57:41.661Z,"    0"
2018-10-01T04:02:38.083Z,"    0"
2018-10-01T04:07:33.599Z,"    0"
2018-10-01T04:12:29.778Z,"    0"
2018-10-01T04:17:25.582Z,"    0"
2018-10-01T04:22:21.491Z,"    0"
2018-10-01T04:27:17.323Z,"    0"
2018-10-01T04:32:13.137Z,"    0"
2018-10-01T04:37:08.941Z,"    0"
2018-10-01T04:42:04.650Z,"    0"
2018-10-01T04:47:01.537Z,"    0"
2018-10-01T04:51:56.686Z,"    0"
2018-10-01T04:56:52.583Z,"    0"
2018-10-01T05:01:48.054Z,"    0"
2018-10-01T05:06:44.883Z,"    4"
2018-10-01T05:11:40.212Z,"   12"
2018-10-01T05:16:35.950Z,"   28"
2018-10-01T05:21:31.516Z,"   52"
2018-10-01T05:26:27.482Z,"   92"
2018-10-01T05:31:24.484Z,"  140"
2018-10-01T05:36:19.828Z,"  192"
2018-10-01T05:41:15.509Z,"  268"
2018-10-01T05:46:12.398Z,"  332"
2018-10-01T05:51:07.985Z,"  420"
2018-10-01T05:56:03.538Z,"  500"
2018-10-01T06:00:59.320Z,"  568"
2018-10-01T06:05:55.151Z,"  632"
2018-10-01T06:10:51.992Z,"  708"
2018-10-01T06:15:47.491Z,"  828"
2018-10-01T06:20:44.485Z,"  848"
2018-10-01T06:25:40.006Z,"  940"
2018-10-01T06:30:36.868Z," 1068"
2018-10-01T06:35:33.370Z," 1168"
2018-10-01T06:40:28.837Z," 1288"
2018-10-01T06:45:24.761Z," 1592"
2018-10-01T06:50:20.955Z," 2268"
2018-10-01T06:55:16.930Z," 2072"
2018-10-01T07:00:12.863Z," 3488"
2018-10-01T07:05:09.019Z," 2028"
2018-10-01T07:10:05.061Z," 1808"
2018-10-01T07:15:01.687Z," 1828"
2018-10-01T07:19:57.573Z," 1852"
2018-10-01T07:24:53.510Z," 1884"
2018-10-01T07:29:49.396Z," 1940"
2018-10-01T07:34:46.334Z," 2040"
2018-10-01T07:39:41.884Z," 1988"
2018-10-01T07:44:37.687Z," 2052"
2018-10-01T07:49:33.666Z," 2068"
2018-10-01T07:54:29.677Z," 2164"
2018-10-01T07:59:33.359Z," 2132"
2018-10-01T08:04:29.985Z," 2160"
2018-10-01T08:09:26.961Z," 2320"
2018-10-01T08:14:23.769Z," 2308"
2018-10-01T08:19:20.185Z," 2376"
2018-10-01T08:24:16.553Z," 2224"
2018-10-01T08:29:12.123Z," 2292"
2018-10-01T08:34:08.092Z," 2384"
2018-10-01T08:39:04.344Z," 2296"
2018-10-01T08:44:00.332Z," 2336"
2018-10-01T08:48:55.995Z," 2384"
2018-10-01T08:53:51.957Z," 2436"
2018-10-01T08:58:47.893Z," 2568"
2018-10-01T09:03:44.075Z," 2760"
2018-10-01T09:08:39.869Z," 5584"
2018-10-01T09:13:36.337Z," 4040"
2018-10-01T09:18:32.261Z," 6052"
2018-10-01T09:23:28.543Z," 5256"
2018-10-01T09:28:25.767Z," 7460"
2018-10-01T09:33:22.560Z," 6016"
2018-10-01T09:38:18.386Z," 4536"
2018-10-01T09:43:14.336Z," 5236"
2018-10-01T09:48:10.507Z," 6612"
2018-10-01T09:53:06.571Z," 6756"
2018-10-01T09:58:02.570Z," 7172"
2018-10-01T10:02:58.442Z," 3188"
2018-10-01T10:07:54.011Z," 1952"
2018-10-01T10:12:50.431Z," 4272"
2018-10-01T10:17:47.007Z," 8472"
2018-10-01T10:22:42.677Z," 6744"
2018-10-01T10:27:38.295Z," 7524"
2018-10-01T10:32:34.135Z," 5012"
2018-10-01T10:37:30.019Z," 7156"
2018-10-01T10:42:27.311Z," 2016"
2018-10-01T10:47:22.917Z," 2440"
2018-10-01T10:52:19.868Z," 3836"
2018-10-01T10:57:15.965Z," 4656"
2018-10-01T11:02:11.718Z,10256
2018-10-01T11:07:08.522Z,46400
2018-10-01T11:12:06.406Z," 2148"
2018-10-01T11:17:01.654Z," 2844"
2018-10-01T11:21:58.332Z,18144
2018-10-01T11:26:54.456Z,50944
2018-10-01T11:31:51.020Z,44192
2018-10-01T11:36:48.412Z,14816
2018-10-01T11:41:45.080Z," 8884"
2018-10-01T11:46:40.127Z," 4656"
2018-10-01T11:51:36.209Z," 6504"
2018-10-01T11:56:32.572Z," 7468"
2018-10-01T12:01:29.545Z," 2416"
2018-10-01T12:06:24.921Z," 1812"
2018-10-01T12:11:20.635Z," 4296"
2018-10-01T12:16:17.175Z," 6196"
2018-10-01T12:21:13.764Z," 6192"
2018-10-01T12:26:09.686Z," 8828"
2018-10-01T12:31:05.707Z," 9184"
2018-10-01T12:36:01.305Z," 5176"
2018-10-01T12:40:57.295Z," 3428"
2018-10-01T12:45:52.772Z," 4968"
2018-10-01T12:50:48.930Z," 3524"
2018-10-01T12:55:44.854Z," 4208"
2018-10-01T13:00:45.742Z," 7260"
2018-10-01T13:05:40.793Z," 3568"
2018-10-01T13:10:37.125Z," 3068"
2018-10-01T13:15:32.885Z," 3628"
2018-10-01T13:20:28.611Z," 2308"
2018-10-01T13:25:24.308Z," 2544"
2018-10-01T13:30:21.402Z," 2936"
2018-10-01T13:35:16.913Z," 1440"
2018-10-01T13:40:12.546Z," 2240"
2018-10-01T13:45:09.683Z," 3188"
2018-10-01T13:50:06.434Z," 6020"
2018-10-01T13:55:02.051Z," 3076"
2018-10-01T13:59:59.596Z," 2420"
2018-10-01T14:04:56.188Z," 3112"
2018-10-01T14:09:52.904Z," 4572"
2018-10-01T14:14:48.856Z," 3068"
2018-10-01T14:19:44.826Z," 2184"
2018-10-01T14:24:40.792Z," 2192"
2018-10-01T14:29:37.729Z," 2960"
2018-10-01T14:34:33.228Z," 2516"
2018-10-01T14:39:29.075Z," 2940"
2018-10-01T14:44:25.882Z," 2644"
2018-10-01T14:49:22.404Z," 2300"
2018-10-01T14:54:18.374Z," 1884"
2018-10-01T14:59:14.434Z," 1856"
2018-10-01T15:04:10.191Z," 1672"
2018-10-01T15:09:06.004Z," 1624"
2018-10-01T15:14:01.905Z," 1612"
2018-10-01T15:18:59.747Z," 1544"
2018-10-01T15:23:55.097Z," 1644"
2018-10-01T15:28:51.744Z," 1724"
2018-10-01T15:33:48.537Z,"  848"
2018-10-01T15:38:44.189Z," 2464"
2018-10-01T15:43:40.208Z," 1988"
2018-10-01T15:48:36.071Z," 2232"
2018-10-01T15:53:31.616Z," 1612"
2018-10-01T15:58:28.141Z," 1296"
2018-10-01T16:03:25.279Z," 1092"
2018-10-01T16:08:20.950Z," 1080"
2018-10-01T16:13:16.287Z," 1012"
2018-10-01T16:18:12.064Z,"  936"
2018-10-01T16:23:08.913Z,"  852"
2018-10-01T16:28:04.454Z,"  756"
2018-10-01T16:33:01.625Z,"  668"
2018-10-01T16:37:57.165Z,"  604"
2018-10-01T16:42:53.180Z,"  512"
2018-10-01T16:47:48.923Z,"  424"
2018-10-01T16:52:45.721Z,"  340"
2018-10-01T16:57:42.142Z,"  256"
2018-10-01T17:02:37.670Z,"  180"
2018-10-01T17:07:33.655Z,"  120"
2018-10-01T17:12:29.524Z,"   48"
2018-10-01T17:17:25.356Z,"   36"
2018-10-01T17:22:21.037Z,"   20"
2018-10-01T17:27:16.726Z,"    8"
2018-10-01T17:32:12.637Z,"    4"
2018-10-01T17:37:09.234Z,"    0"
2018-10-01T17:42:04.816Z,"    0"
2018-10-01T17:47:01.451Z,"    0"
2018-10-01T17:51:57.936Z,"    0"
2018-10-01T17:56:53.633Z,"    0"
2018-10-01T18:01:50.052Z,"    0"
2018-10-01T18:06:46.432Z,"    0"
2018-10-01T18:11:42.146Z,"    0"
2018-10-01T18:16:40.335Z,"    0"
2018-10-01T18:21:35.986Z,"    0"
2018-10-01T18:26:32.930Z,"    0"
2018-10-01T18:31:28.428Z,"    0"
2018-10-01T18:36:25.769Z,"    0"
2018-10-01T18:41:22.158Z,"    0"
2018-10-01T18:46:17.623Z,"    0"
2018-10-01T18:51:14.489Z,"    0"
2018-10-01T18:56:10.089Z,"    0"
2018-10-01T19:01:05.672Z,"    0"
2018-10-01T19:06:01.746Z,"    0"
2018-10-01T19:10:57.741Z,"    0"
2018-10-01T19:15:53.550Z,"    0"
2018-10-01T19:20:49.683Z,"    0"
2018-10-01T19:25:45.178Z,"    0"
2018-10-01T19:30:41.066Z,"    0"
2018-10-01T19:35:37.724Z,"    0"
2018-10-01T19:40:33.384Z,"    0"
2018-10-01T19:45:29.262Z,"    0"
2018-10-01T19:50:25.173Z,"    0"
2018-10-01T19:55:21.316Z,"    0"
2018-10-01T20:00:18.113Z,"    0"
2018-10-01T20:05:13.631Z,"    0"
2018-10-01T20:10:09.174Z,"    0"
2018-10-01T20:15:04.968Z,"    0"
2018-10-01T20:20:01.868Z,"    0"
2018-10-01T20:24:57.645Z,"    0"
2018-10-01T20:29:53.330Z,"    0"
2018-10-01T20:34:49.052Z,"    0"
2018-10-01T20:39:45.064Z,"    0"
2018-10-01T20:44:42.192Z,"    0"
2018-10-01T20:49:37.532Z,"    0"
2018-10-01T20:54:33.339Z,"    0"
2018-10-01T20:59:28.964Z,"    0"
2018-10-01T21:04:24.691Z,"    0"
2018-10-01T21:09:21.493Z,"    0"
2018-10-01T21:14:17.119Z,"    0"
2018-10-01T21:19:12.821Z,"    0"
2018-10-01T21:24:09.004Z,"    0"
2018-10-01T21:29:04.630Z,"    0"
2018-10-01T21:34:00.232Z,"    0"
2018-10-01T21:38:56.063Z,"    0"
2018-10-01T21:43:51.789Z,"    0"
2018-10-01T21:48:47.759Z,"    0"
2018-10-01T21:53:43.362Z,"    0"
2018-10-01T21:58:38.944Z,"    0"
2018-10-01T22:03:35.257Z,"    0"
2018-10-01T22:08:31.612Z,"    0"
2018-10-01T22:13:28.317Z,"    0"
2018-10-01T22:18:23.616Z,"    0"
2018-10-01T22:23:19.441Z,"    0"
2018-10-01T22:28:14.948Z,"    0"
2018-10-01T22:33:10.592Z,"    0"
2018-10-01T22:38:06.465Z,"    0"
2018-10-01T22:43:03.187Z,"    0"
2018-10-01T22:47:59.898Z,"    0"
2018-10-01T22:52:56.088Z,"    0"
2018-10-01T22:57:51.789Z,"    0"
2018-10-01T23:02:47.556Z,"    0"
2018-10-01T23:07:44.087Z,"    0"
2018-10-01T23:12:39.573Z,"    0"
2018-10-01T23:17:35.522Z,"    0"
2018-10-01T23:22:31.419Z,"    0"
2018-10-01T23:27:27.105Z,"    0"
2018-10-01T23:32:23.481Z,"    0"
2018-10-01T23:37:19.972Z,"    0"
2018-10-01T23:42:15.689Z,"    0"
2018-10-01T23:47:11.638Z,"    0"
2018-10-01T23:52:07.400Z,"    0"
2018-10-01T23:57:03.795Z,"    0"
